Terminal Aerodrome Forecast
Issued by NWS

Home | Current Version | Previous Version | Text Only | Print | Product List | Glossary On
Versions: 1 2 3 4 5 6 7 8 9 10 11 12 13
239
FTUS43 KAPX 281739
TAFTVC
TAF
KTVC 281739Z 2818/2918 02007KT P6SM BKN070
     FM290000 02006KT P6SM VCSH SCT025 BKN070
     FM290300 VRB03KT P6SM SCT025 BKN100
     FM290900 VRB03KT P6SM SCT100
     FM291600 06007G14KT P6SM FEW250=

USA.gov is the U.S. government's official web portal to all federal, state and local government web resources and services.